Time;durP1;ratioP1;P1;durP2;ratioP2;P2;SDS_P1;SDS_P2;PMS_P1;PMS_P2;Temp;Humidity;BMP_temperature;BMP_pressure;BME280_temperature;BME280_humidity;BME280_pressure;Samples;Min_cycle;Max_cycle;Signal;HPM_P1;HPM_P2
2021/06/28 00:01:23;;;;;;;4.10;3.70;;;;;;;22.13;100.00;100091.79;1707312;82;21055;-44
2021/06/28 00:03:50;;;;;;;4.03;3.72;;;;;;;22.11;100.00;100097.38;1726067;81;21492;-45
2021/06/28 00:06:17;;;;;;;4.00;3.60;;;;;;;22.09;100.00;100102.13;1723629;81;21038;-44
2021/06/28 00:08:44;;;;;;;4.83;3.67;;;;;;;22.09;100.00;100105.36;1723955;83;21462;-44
2021/06/28 00:11:12;;;;;;;4.83;3.70;;;;;;;22.07;100.00;100099.25;1688480;83;20946;-45
2021/06/28 00:13:41;;;;;;;4.05;3.60;;;;;;;22.04;100.00;100104.00;1687947;83;20963;-44
2021/06/28 00:16:08;;;;;;;3.85;3.55;;;;;;;22.01;100.00;100104.87;1691570;82;21042;-45
2021/06/28 00:18:36;;;;;;;4.95;3.65;;;;;;;21.98;100.00;100104.70;1695368;83;21002;-45
2021/06/28 00:21:05;;;;;;;5.35;3.65;;;;;;;21.94;100.00;100109.29;1688589;83;21510;-45
2021/06/28 00:23:31;;;;;;;7.05;4.33;;;;;;;21.90;100.00;100103.86;1714750;81;20966;-45
2021/06/28 00:25:59;;;;;;;6.60;3.90;;;;;;;21.89;100.00;100107.61;1699829;83;21076;-45
2021/06/28 00:28:27;;;;;;;5.72;4.15;;;;;;;21.86;100.00;100112.87;1695773;83;20959;-42
2021/06/28 00:30:55;;;;;;;4.00;3.62;;;;;;;21.86;100.00;100116.09;1707207;83;20984;-45
2021/06/28 00:33:22;;;;;;;3.60;3.22;;;;;;;21.85;100.00;100115.73;1709576;82;20964;-45
2021/06/28 00:35:49;;;;;;;4.80;3.50;;;;;;;21.85;100.00;100114.38;1725518;81;20970;-44
2021/06/28 00:38:17;;;;;;;4.92;3.52;;;;;;;21.82;100.00;100111.02;1701952;83;20987;-44
2021/06/28 00:40:44;;;;;;;4.00;3.20;;;;;;;21.83;100.00;100109.98;1672618;84;21825;-45
2021/06/28 00:43:11;;;;;;;6.90;3.50;;;;;;;21.81;100.00;100111.17;1685542;83;21535;-44
2021/06/28 00:45:41;;;;;;;4.78;3.60;;;;;;;21.80;100.00;100112.21;1672479;83;21378;-44
2021/06/28 00:48:11;;;;;;;4.22;3.70;;;;;;;21.81;100.00;100115.25;1690071;83;21425;-46
2021/06/28 00:50:51;;;;;;;3.45;3.15;;;;;;;21.82;100.00;100125.94;1684308;83;20972;-44
2021/06/28 00:53:20;;;;;;;5.50;3.52;;;;;;;21.81;100.00;100110.66;1685956;83;21011;-44
2021/06/28 00:55:47;;;;;;;3.00;2.67;;;;;;;21.81;100.00;100111.17;1711802;82;21341;-44
2021/06/28 00:58:14;;;;;;;3.95;3.47;;;;;;;21.79;100.00;100105.91;1717587;82;21042;-44
2021/06/28 01:00:40;;;;;;;4.42;3.30;;;;;;;21.76;100.00;100110.84;1688175;84;20980;-44
2021/06/28 01:03:07;;;;;;;8.40;3.42;;;;;;;21.71;100.00;100117.30;1696856;82;21495;-44
2021/06/28 01:05:35;;;;;;;6.20;3.75;;;;;;;21.67;100.00;100118.16;1713666;82;20982;-45
2021/06/28 01:08:03;;;;;;;3.62;3.33;;;;;;;21.65;100.00;100124.25;1685658;84;21015;-42
2021/06/28 01:10:30;;;;;;;4.33;3.65;;;;;;;21.64;100.00;100131.20;1714097;82;21005;-44
2021/06/28 01:12:56;;;;;;;4.83;3.90;;;;;;;21.64;100.00;100129.33;1718376;83;20993;-43
2021/06/28 01:15:23;;;;;;;4.53;3.60;;;;;;;21.63;100.00;100126.28;1710533;82;20991;-43
2021/06/28 01:17:50;;;;;;;4.78;3.98;;;;;;;21.61;100.00;100129.67;1703734;82;21472;-44
2021/06/28 01:20:26;;;;;;;4.17;3.72;;;;;;;21.59;100.00;100131.70;1717639;82;21651;-45
2021/06/28 01:22:55;;;;;;;6.30;5.70;;;;;;;21.59;100.00;100130.34;1691454;83;21484;-45
2021/06/28 01:25:25;;;;;;;3.83;3.52;;;;;;;21.59;100.00;100130.34;1716953;82;20964;-44
2021/06/28 01:27:51;;;;;;;3.72;3.35;;;;;;;21.59;100.00;100140.67;1714507;83;21002;-45
2021/06/28 01:30:22;;;;;;;4.05;3.62;;;;;;;21.60;100.00;100144.27;1721215;82;21020;-43
2021/06/28 01:32:50;;;;;;;3.83;3.45;;;;;;;21.57;100.00;100138.67;1722824;82;20962;-43
2021/06/28 01:35:16;;;;;;;4.20;3.25;;;;;;;21.56;100.00;100139.66;1718851;81;21242;-43
2021/06/28 01:37:45;;;;;;;3.98;3.55;;;;;;;21.55;100.00;100134.42;1695433;83;21023;-41
2021/06/28 01:40:13;;;;;;;3.25;2.95;;;;;;;21.53;100.00;100127.80;1710311;82;20990;-43
2021/06/28 01:42:40;;;;;;;3.70;3.30;;;;;;;21.52;100.00;100127.48;1702290;82;21479;-44
2021/06/28 01:45:09;;;;;;;4.97;3.72;;;;;;;21.53;100.00;100131.03;1710149;82;21056;-44
2021/06/28 01:47:37;;;;;;;4.03;3.37;;;;;;;21.52;100.00;100134.74;1706980;82;20989;-42
2021/06/28 01:50:09;;;;;;;4.55;3.37;;;;;;;21.53;100.00;100121.54;1712879;83;20978;-42
2021/06/28 01:52:36;;;;;;;5.40;3.92;;;;;;;21.48;100.00;100122.04;1722943;81;21498;-44
2021/06/28 01:55:04;;;;;;;4.40;3.70;;;;;;;21.45;100.00;100122.39;1718085;81;21073;-44
2021/06/28 01:57:31;;;;;;;3.80;3.33;;;;;;;21.46;100.00;100124.58;1720470;82;21029;-43
2021/06/28 01:59:57;;;;;;;3.98;3.60;;;;;;;21.44;100.00;100127.45;1728607;82;20986;-43
2021/06/28 02:02:24;;;;;;;3.87;3.35;;;;;;;21.41;100.00;100127.80;1714988;83;20954;-42
2021/06/28 02:04:50;;;;;;;5.33;3.50;;;;;;;21.36;100.00;100125.55;1715879;81;20994;-46
2021/06/28 02:07:17;;;;;;;5.37;3.62;;;;;;;21.33;100.00;100128.60;1729194;83;21029;-42
2021/06/28 02:09:44;;;;;;;4.12;3.15;;;;;;;21.31;100.00;100127.92;1716776;82;20964;-44
2021/06/28 02:12:11;;;;;;;4.17;3.37;;;;;;;21.30;100.00;100128.95;1706601;82;21026;-43
2021/06/28 02:14:38;;;;;;;4.30;3.42;;;;;;;21.30;100.00;100129.46;1713970;81;21481;-46
2021/06/28 02:17:04;;;;;;;5.42;3.85;;;;;;;21.30;100.00;100129.46;1715824;82;20974;-43
2021/06/28 02:19:31;;;;;;;4.62;4.15;;;;;;;21.31;100.00;100131.98;1715941;81;20976;-43
2021/06/28 02:21:59;;;;;;;6.12;4.05;;;;;;;21.31;100.00;100131.98;1717719;83;20990;-44
2021/06/28 02:24:26;;;;;;;3.87;3.27;;;;;;;21.33;100.00;100134.02;1691464;81;21065;-42
2021/06/28 02:26:52;;;;;;;4.15;3.80;;;;;;;21.31;100.00;100128.44;1725728;81;21001;-42
2021/06/28 02:29:19;;;;;;;4.83;3.77;;;;;;;21.29;100.00;100129.97;1717014;81;21121;-43
2021/06/28 02:31:45;;;;;;;6.05;4.17;;;;;;;21.29;100.00;100130.45;1691361;82;21010;-43
2021/06/28 02:34:12;;;;;;;6.28;3.80;;;;;;;21.27;100.00;100129.28;1685047;82;21021;-42
2021/06/28 02:36:40;;;;;;;4.15;3.75;;;;;;;21.26;100.00;100141.13;1679321;82;20987;-44
2021/06/28 02:39:07;;;;;;;4.28;3.40;;;;;;;21.23;100.00;100137.41;1710931;81;20966;-44
2021/06/28 02:41:34;;;;;;;3.83;3.42;;;;;;;21.22;100.00;100137.55;1712145;81;20943;-45
2021/06/28 02:44:01;;;;;;;5.33;4.42;;;;;;;21.18;100.00;100137.05;1708766;82;20986;-43
2021/06/28 02:46:29;;;;;;;4.95;4.17;;;;;;;21.17;100.00;100144.34;1711852;82;21778;-44
2021/06/28 02:48:56;;;;;;;4.37;3.98;;;;;;;21.17;100.00;100147.06;1715409;81;21037;-44
2021/06/28 02:51:22;;;;;;;5.55;5.00;;;;;;;21.17;100.00;100148.92;1723536;81;20962;-43
2021/06/28 02:53:49;;;;;;;6.47;3.83;;;;;;;21.13;100.00;100147.55;1714265;81;21458;-46
2021/06/28 02:56:16;;;;;;;5.00;3.77;;;;;;;21.10;100.00;100147.89;1721418;82;21073;-46
2021/06/28 02:58:54;;;;;;;6.40;4.75;;;;;;;21.06;100.00;100147.87;1717471;81;22010;-45
2021/06/28 03:01:22;;;;;;;6.30;4.35;;;;;;;21.04;100.00;100156.66;1715056;81;20977;-44
2021/06/28 03:03:49;;;;;;;4.83;3.92;;;;;;;21.01;100.00;100154.29;1692939;83;20987;-44
2021/06/28 03:06:15;;;;;;;5.30;4.60;;;;;;;20.99;100.00;100159.89;1685913;83;21480;-42
2021/06/28 03:08:43;;;;;;;6.22;4.40;;;;;;;20.96;100.00;100158.84;1690141;83;20934;-45
2021/06/28 03:11:16;;;;;;;4.53;3.92;;;;;;;20.93;100.00;100158.67;1708320;82;21036;-44
2021/06/28 03:13:43;;;;;;;5.17;3.95;;;;;;;20.90;100.00;100160.36;1704060;83;21026;-43
2021/06/28 03:16:11;;;;;;;6.08;4.30;;;;;;;20.86;100.00;100151.36;1690522;83;21031;-46
2021/06/28 03:18:38;;;;;;;4.90;4.50;;;;;;;20.83;100.00;100159.31;1685079;84;20988;-44
2021/06/28 03:21:12;;;;;;;4.97;4.25;;;;;;;20.82;100.00;100153.56;1678208;83;21032;-43
2021/06/28 03:23:35;;;;;;;6.05;4.47;;;;;;;20.83;100.00;100162.53;1685287;83;21459;-45
2021/06/28 03:26:02;;;;;;;6.53;5.03;;;;;;;20.82;100.00;100161.69;1693753;83;20972;-44
2021/06/28 03:28:29;;;;;;;7.05;4.70;;;;;;;20.82;100.00;100161.69;1717716;82;21112;-43
2021/06/28 03:30:56;;;;;;;5.80;4.10;;;;;;;20.79;100.00;100156.61;1710463;83;21490;-45
2021/06/28 03:33:22;;;;;;;5.12;4.05;;;;;;;20.78;100.00;100165.73;1714757;83;21022;-47
2021/06/28 03:35:50;;;;;;;5.05;4.55;;;;;;;20.79;100.00;100170.16;1715660;82;21003;-44
2021/06/28 03:38:17;;;;;;;5.20;4.28;;;;;;;20.80;100.00;100172.34;1707750;83;21482;-44
2021/06/28 03:40:45;;;;;;;8.00;6.00;;;;;;;20.82;100.00;100168.98;1705395;83;20985;-44
2021/06/28 03:43:14;;;;;;;8.38;6.03;;;;;;;20.84;100.00;100178.64;1724880;81;21005;-43
2021/06/28 03:45:40;;;;;;;5.97;4.70;;;;;;;20.84;100.00;100177.77;1709549;82;21017;-42
2021/06/28 03:48:08;;;;;;;4.40;4.00;;;;;;;20.83;100.00;100178.28;1715566;83;20962;-44
2021/06/28 03:50:36;;;;;;;5.83;4.58;;;;;;;20.83;100.00;100175.56;1683254;83;20994;-42
2021/06/28 03:53:03;;;;;;;5.28;4.53;;;;;;;20.84;100.00;100174.58;1665461;83;21798;-44
2021/06/28 03:55:30;;;;;;;7.47;4.58;;;;;;;20.85;100.00;100175.41;1681899;83;21014;-44
2021/06/28 03:57:57;;;;;;;5.35;4.30;;;;;;;20.84;100.00;100175.93;1702891;83;21013;-44
2021/06/28 04:00:24;;;;;;;6.15;4.05;;;;;;;20.83;100.00;100176.08;1716895;83;21018;-44
2021/06/28 04:02:52;;;;;;;5.00;4.47;;;;;;;20.80;100.00;100185.38;1710221;82;20970;-41
2021/06/28 04:05:21;;;;;;;5.40;4.90;;;;;;;20.76;100.00;100192.13;1701441;81;20990;-42
2021/06/28 04:07:52;;;;;;;4.47;4.05;;;;;;;20.74;100.00;100195.02;1677249;83;20987;-42
2021/06/28 04:10:20;;;;;;;;;;;;;;;20.74;100.00;100184.18;1665554;84;20970;-42
2021/06/28 04:12:47;;;;;;;4.40;4.00;;;;;;;20.74;100.00;100190.11;1686390;83;20117;-42
2021/06/28 04:15:14;;;;;;;4.08;3.67;;;;;;;20.71;100.00;100187.70;1714603;82;21637;-42
2021/06/28 04:17:42;;;;;;;5.05;3.83;;;;;;;20.73;100.00;100193.30;1717895;82;21042;-43
2021/06/28 04:20:11;;;;;;;4.55;3.58;;;;;;;20.76;100.00;100182.64;1701001;82;21025;-44
2021/06/28 04:22:38;;;;;;;4.97;3.80;;;;;;;20.77;100.00;100187.07;1707205;82;21006;-42
2021/06/28 04:25:06;;;;;;;5.37;3.77;;;;;;;20.82;100.00;100188.78;1727185;82;21045;-41
2021/06/28 04:27:33;;;;;;;4.60;4.00;;;;;;;20.83;100.00;100182.86;1714410;83;21003;-42
2021/06/28 04:30:00;;;;;;;6.37;3.65;;;;;;;20.86;100.00;100183.36;1717369;83;21702;-43
2021/06/28 04:32:27;;;;;;;5.00;3.85;;;;;;;20.88;100.00;100180.50;1690166;83;21471;-44
2021/06/28 04:34:57;;;;;;;5.95;5.35;;;;;;;20.89;100.00;100181.70;1703052;83;21002;-42
2021/06/28 04:37:22;;;;;;;5.70;4.45;;;;;;;20.94;100.00;100178.48;1715597;83;21517;-44
2021/06/28 04:39:49;;;;;;;4.83;3.98;;;;;;;20.99;100.00;100181.58;1690288;83;21045;-45
2021/06/28 04:42:15;;;;;;;4.33;3.50;;;;;;;21.02;100.00;100183.95;1721354;82;20984;-43
2021/06/28 04:44:42;;;;;;;3.70;3.25;;;;;;;21.05;100.00;100184.97;1712638;82;20988;-45
2021/06/28 04:47:09;;;;;;;3.85;3.45;;;;;;;21.06;100.00;100189.87;1713094;81;21005;-47
2021/06/28 04:49:35;;;;;;;4.12;3.62;;;;;;;21.05;100.00;100180.06;1699087;82;21016;-42
2021/06/28 04:52:02;;;;;;;4.97;4.28;;;;;;;21.06;100.00;100183.10;1692053;83;21013;-44
2021/06/28 04:54:29;;;;;;;3.70;3.35;;;;;;;21.07;100.00;100178.88;1697904;82;20973;-44
2021/06/28 04:56:56;;;;;;;3.55;3.25;;;;;;;21.10;100.00;100177.70;1727319;83;21017;-44
2021/06/28 04:59:22;;;;;;;5.33;3.55;;;;;;;21.14;100.00;100184.47;1710227;83;20967;-43
2021/06/28 05:01:49;;;;;;;5.58;3.75;;;;;;;21.17;100.00;100179.59;1711487;83;20991;-43
2021/06/28 05:04:16;;;;;;;4.62;4.05;;;;;;;21.18;100.00;100181.27;1713961;83;21337;-42
2021/06/28 05:06:43;;;;;;;5.08;4.37;;;;;;;21.18;100.00;100177.72;1712466;81;20985;-44
2021/06/28 05:09:10;;;;;;;4.10;3.70;;;;;;;21.19;100.00;100184.82;1716674;81;20983;-42
2021/06/28 05:11:37;;;;;;;5.60;4.17;;;;;;;21.21;100.00;100172.47;1705795;81;21070;-43
2021/06/28 05:14:04;;;;;;;5.72;4.97;;;;;;;21.26;100.00;100180.44;1706893;82;20975;-44
2021/06/28 05:16:32;;;;;;;6.40;4.20;;;;;;;21.32;100.00;100179.79;1705461;81;21018;-45
2021/06/28 05:18:58;;;;;;;4.28;3.87;;;;;;;21.42;100.00;100181.52;1704965;82;21005;-48
2021/06/28 05:21:25;;;;;;;7.30;5.45;;;;;;;21.52;100.00;100183.56;1707265;82;21427;-48
2021/06/28 05:23:52;;;;;;;5.92;4.25;;;;;;;21.60;100.00;100176.30;1707966;83;21034;-47
2021/06/28 05:26:19;;;;;;;6.87;4.10;;;;;;;21.65;100.00;100178.51;1709769;81;20934;-45
2021/06/28 05:28:47;;;;;;;4.80;4.30;;;;;;;21.70;100.00;100178.01;1715524;81;20973;-47
2021/06/28 05:31:13;;;;;;;4.97;4.22;;;;;;;21.74;100.00;100175.27;1715874;81;21039;-47
2021/06/28 05:33:40;;;;;;;4.78;3.98;;;;;;;21.81;100.00;100177.66;1702856;81;20976;-44
2021/06/28 05:36:07;;;;;;;5.72;3.90;;;;;;;21.87;100.00;100172.05;1711031;81;20970;-45
2021/06/28 05:38:33;;;;;;;6.37;5.78;;;;;;;21.91;100.00;100174.77;1724032;82;20978;-46
2021/06/28 05:41:00;;;;;;;4.42;4.03;;;;;;;21.93;100.00;100172.23;1711260;83;21339;-48
2021/06/28 05:43:27;;;;;;;4.90;3.98;;;;;;;21.96;100.00;100162.89;1680717;84;21546;-48
2021/06/28 05:45:53;;;;;;;11.28;4.08;;;;;;;21.98;100.00;100166.30;1723217;81;21055;-47
2021/06/28 05:48:20;;;;;;;4.22;3.70;;;;;;;21.99;100.00;100165.27;1713695;81;21047;-48
2021/06/28 05:50:48;;;;;;;5.42;4.85;;;;;;;22.02;100.00;100170.34;1715039;82;21392;-49
2021/06/28 05:53:14;;;;;;;5.42;4.67;;;;;;;22.04;100.00;100164.23;1726046;81;20930;-47
2021/06/28 05:55:41;;;;;;;6.50;4.53;;;;;;;22.05;100.00;100160.52;1722793;81;20939;-49
2021/06/28 05:58:08;;;;;;;6.55;4.20;;;;;;;22.09;100.00;100165.08;1721604;81;21041;-44
2021/06/28 06:00:34;;;;;;;4.35;3.67;;;;;;;22.11;100.00;100164.41;1721574;81;20966;-48
2021/06/28 06:03:01;;;;;;;4.15;3.75;;;;;;;22.14;100.00;100165.41;1721412;81;21070;-44
2021/06/28 06:05:28;;;;;;;11.50;6.85;;;;;;;22.17;100.00;100162.34;1715106;82;21038;-46
2021/06/28 06:07:55;;;;;;;5.80;5.12;;;;;;;22.23;100.00;100157.63;1717844;82;21011;-51
2021/06/28 06:10:22;;;;;;;3.45;3.08;;;;;;;22.28;100.00;100157.12;1714134;81;20984;-44
2021/06/28 06:12:49;;;;;;;5.90;3.25;;;;;;;22.33;100.00;100158.80;1706135;82;20971;-45
2021/06/28 06:15:16;;;;;;;3.45;3.15;;;;;;;22.38;100.00;100157.25;1696709;82;20967;-44
2021/06/28 06:17:42;;;;;;;3.80;3.40;;;;;;;22.41;100.00;100156.90;1700078;82;21078;-46
2021/06/28 06:20:10;;;;;;;3.35;3.05;;;;;;;22.46;100.00;100163.17;1679552;82;21471;-46
2021/06/28 06:22:36;;;;;;;4.12;3.35;;;;;;;22.50;100.00;100160.94;1670829;83;21538;-46
2021/06/28 06:25:05;;;;;;;5.62;3.20;;;;;;;22.55;100.00;100161.27;1682283;83;21019;-46
2021/06/28 06:27:31;;;;;;;7.17;3.00;;;;;;;22.60;100.00;100158.38;1677276;84;21580;-46
2021/06/28 06:29:58;;;;;;;4.33;3.80;;;;;;;22.62;100.00;100160.91;1685652;82;21039;-46
2021/06/28 06:32:24;;;;;;;4.67;3.27;;;;;;;22.63;100.00;100158.02;1691220;83;21004;-46
2021/06/28 06:34:51;;;;;;;5.30;3.35;;;;;;;22.64;100.00;100167.85;1669637;84;21435;-47
2021/06/28 06:37:18;;;;;;;5.17;2.98;;;;;;;22.65;100.00;100171.41;1694353;83;21466;-48
2021/06/28 06:39:44;;;;;;;4.53;3.08;;;;;;;22.66;100.00;100170.41;1710338;81;20941;-41
2021/06/28 06:42:11;;;;;;;3.87;3.27;;;;;;;22.68;100.00;100177.36;1697218;82;21575;-42
2021/06/28 06:44:38;;;;;;;3.80;3.37;;;;;;;22.69;100.00;100174.12;1709627;81;21014;-45
2021/06/28 06:47:04;;;;;;;4.40;2.58;;;;;;;22.70;100.00;100177.16;1715887;81;20966;-49
2021/06/28 06:49:31;;;;;;;2.98;2.67;;;;;;;22.75;99.98;100176.64;1713015;81;21013;-43
2021/06/28 06:51:57;;;;;;;4.42;2.85;;;;;;;22.76;98.46;100177.00;1718799;81;21037;-42
2021/06/28 06:54:24;;;;;;;4.67;2.52;;;;;;;22.78;98.74;100185.80;1708829;81;21081;-41
2021/06/28 06:56:51;;;;;;;5.40;3.80;;;;;;;22.81;100.00;100187.67;1690493;82;20968;-46
2021/06/28 06:59:17;;;;;;;4.00;2.92;;;;;;;22.84;99.40;100189.19;1721047;81;21005;-44
2021/06/28 07:01:45;;;;;;;3.02;2.70;;;;;;;22.87;100.00;100193.74;1724825;81;20985;-45
2021/06/28 07:04:14;;;;;;;3.55;2.75;;;;;;;22.89;100.00;100193.06;1724407;81;20972;-44
2021/06/28 07:06:42;;;;;;;3.40;2.70;;;;;;;22.94;100.00;100195.77;1711711;82;21590;-50
2021/06/28 07:09:09;;;;;;;2.85;2.58;;;;;;;22.95;100.00;100194.22;1716994;83;21533;-49
2021/06/28 07:11:35;;;;;;;4.22;3.10;;;;;;;22.97;100.00;100196.77;1717868;82;21456;-51
2021/06/28 07:14:02;;;;;;;3.95;2.52;;;;;;;22.97;99.61;100196.77;1718398;82;20966;-49
2021/06/28 07:16:32;;;;;;;4.45;2.90;;;;;;;22.98;97.92;100194.41;1691665;83;20951;-44
2021/06/28 07:19:01;;;;;;;;;;;;;;;22.98;96.72;100182.17;1728771;81;20998;-43
2021/06/28 07:21:28;;;;;;;5.70;2.52;;;;;;;22.96;97.42;100189.14;1671941;84;20095;-45
2021/06/28 07:23:56;;;;;;;5.08;4.58;;;;;;;22.99;99.63;100191.52;1670142;83;21007;-44
2021/06/28 07:26:25;;;;;;;4.03;3.12;;;;;;;23.04;99.38;100181.48;1708741;83;21547;-44
2021/06/28 07:28:53;;;;;;;3.37;2.90;;;;;;;23.10;100.00;100183.48;1710683;81;21278;-45
2021/06/28 07:31:20;;;;;;;3.02;2.72;;;;;;;23.16;99.02;100191.42;1707734;82;21526;-43
2021/06/28 07:33:46;;;;;;;5.53;3.02;;;;;;;23.24;98.48;100194.96;1714878;82;20963;-42
2021/06/28 07:36:15;;;;;;;2.80;2.10;;;;;;;23.28;95.78;100189.52;1725850;81;21034;-43
2021/06/28 07:38:42;;;;;;;3.20;2.90;;;;;;;23.30;95.51;100190.16;1728686;83;20979;-43
2021/06/28 07:41:08;;;;;;;2.52;2.33;;;;;;;23.32;95.83;100196.78;1723015;81;20962;-47
2021/06/28 07:43:35;;;;;;;3.42;2.37;;;;;;;23.36;95.96;100194.05;1719411;81;21008;-47
2021/06/28 07:46:02;;;;;;;3.08;2.20;;;;;;;23.41;93.58;100186.69;1701353;82;21006;-47
2021/06/28 07:48:30;;;;;;;3.17;2.37;;;;;;;23.45;92.73;100184.79;1694503;83;21066;-47
2021/06/28 07:50:56;;;;;;;2.80;2.60;;;;;;;23.48;90.05;100187.66;1688558;82;20971;-47
2021/06/28 07:53:23;;;;;;;3.40;2.20;;;;;;;23.47;89.50;100190.91;1686960;83;20990;-48
2021/06/28 07:55:50;;;;;;;2.47;2.27;;;;;;;23.47;92.01;100186.82;1689445;82;21497;-45
2021/06/28 07:58:17;;;;;;;3.33;2.37;;;;;;;23.49;92.22;100189.37;1702375;82;21272;-46
2021/06/28 08:00:43;;;;;;;4.40;2.75;;;;;;;23.48;90.15;100194.46;1702056;83;21454;-45
2021/06/28 08:03:10;;;;;;;4.10;2.50;;;;;;;23.44;89.09;100190.43;1695145;82;20988;-45
2021/06/28 08:05:37;;;;;;;3.10;2.60;;;;;;;23.41;90.47;100195.72;1705875;83;21004;-45
2021/06/28 08:08:05;;;;;;;5.03;2.83;;;;;;;23.42;92.64;100191.95;1723991;82;21440;-46
2021/06/28 08:10:32;;;;;;;4.60;2.30;;;;;;;23.48;92.52;100195.83;1711850;82;21084;-45
2021/06/28 08:12:59;;;;;;;3.52;2.58;;;;;;;23.54;91.37;100200.56;1705078;82;21449;-47
2021/06/28 08:15:25;;;;;;;2.95;2.65;;;;;;;23.62;92.08;100204.58;1705507;83;21010;-43
2021/06/28 08:17:52;;;;;;;3.75;2.58;;;;;;;23.69;92.34;100208.27;1705583;83;20952;-43
2021/06/28 08:20:20;;;;;;;3.58;2.98;;;;;;;23.78;91.81;100206.35;1708319;81;21553;-42
2021/06/28 08:22:47;;;;;;;3.50;2.77;;;;;;;23.85;92.75;100213.28;1670823;83;21032;-45
2021/06/28 08:25:15;;;;;;;3.70;2.58;;;;;;;23.88;92.94;100214.27;1702085;82;21036;-44
2021/06/28 08:27:42;;;;;;;4.20;2.62;;;;;;;23.88;90.63;100213.75;1715995;81;21019;-46
2021/06/28 08:30:09;;;;;;;4.55;2.40;;;;;;;23.88;90.37;100215.63;1688574;83;21058;-45
2021/06/28 08:32:36;;;;;;;3.20;2.70;;;;;;;23.89;89.12;100207.30;1696504;82;20997;-44
2021/06/28 08:35:04;;;;;;;2.92;2.30;;;;;;;23.91;89.56;100207.97;1688898;83;21509;-44
2021/06/28 08:37:31;;;;;;;5.92;3.98;;;;;;;23.95;89.38;100222.05;1690627;83;21007;-44
2021/06/28 08:39:57;;;;;;;3.02;2.72;;;;;;;23.98;88.98;100221.16;1686209;83;21133;-44
2021/06/28 08:42:24;;;;;;;4.95;2.35;;;;;;;23.96;87.16;100223.73;1687349;82;20999;-43
2021/06/28 08:44:51;;;;;;;3.00;2.33;;;;;;;23.95;87.72;100224.25;1695800;82;20999;-46
2021/06/28 08:47:18;;;;;;;3.22;2.17;;;;;;;23.92;88.06;100220.53;1697751;82;21006;-50
2021/06/28 08:49:45;;;;;;;2.83;2.60;;;;;;;23.94;87.54;100222.57;1686211;83;21062;-46
2021/06/28 08:52:11;;;;;;;2.45;2.25;;;;;;;23.94;85.98;100223.92;1702842;82;21522;-46
2021/06/28 08:54:38;;;;;;;3.75;1.98;;;;;;;23.96;86.81;100225.96;1690917;83;21007;-48
2021/06/28 08:57:05;;;;;;;3.08;2.50;;;;;;;24.00;87.50;100233.23;1700392;82;20951;-46
2021/06/28 08:59:32;;;;;;;2.72;2.02;;;;;;;24.03;87.66;100234.74;1698852;82;20982;-46
2021/06/28 09:01:59;;;;;;;4.53;2.20;;;;;;;24.05;86.21;100240.86;1691324;83;20982;-45
2021/06/28 09:04:25;;;;;;;3.65;2.50;;;;;;;24.06;86.46;100243.38;1675565;84;20997;-46
2021/06/28 09:06:53;;;;;;;3.50;2.62;;;;;;;24.08;87.06;100244.05;1682467;83;20996;-45
2021/06/28 09:09:22;;;;;;;3.42;2.60;;;;;;;24.11;87.30;100242.31;1688716;83;20980;-44
2021/06/28 09:11:50;;;;;;;2.80;2.50;;;;;;;24.15;88.22;100240.09;1684826;83;21045;-45
2021/06/28 09:14:17;;;;;;;4.10;2.20;;;;;;;24.21;88.57;100242.06;1691493;83;20995;-46
2021/06/28 09:16:45;;;;;;;2.62;2.40;;;;;;;24.27;88.60;100241.34;1692194;84;21014;-46
2021/06/28 09:19:16;;;;;;;5.17;4.67;;;;;;;24.36;91.08;100239.38;1697311;82;21005;-47
2021/06/28 09:21:50;;;;;;;3.65;2.75;;;;;;;24.45;91.34;100234.70;1715573;82;20978;-43
2021/06/28 09:24:27;;;;;;;2.67;2.42;;;;;;;24.53;86.35;100235.48;1689641;83;21126;-46
2021/06/28 09:27:00;;;;;;;2.30;2.10;;;;;;;24.59;86.04;100243.42;1718941;81;20987;-45
2021/06/28 09:29:35;;;;;;;2.52;2.27;;;;;;;24.59;83.02;100240.70;1679742;83;20983;-46
2021/06/28 09:32:12;;;;;;;5.45;2.80;;;;;;;24.59;82.39;100234.76;1701172;83;21057;-44
2021/06/28 09:34:42;;;;;;;2.65;2.42;;;;;;;24.60;82.82;100228.27;1696854;82;20990;-45
2021/06/28 09:37:16;;;;;;;3.17;2.52;;;;;;;24.64;82.75;100238.26;1722378;81;21010;-45
2021/06/28 09:39:47;;;;;;;4.80;2.92;;;;;;;24.66;84.81;100234.00;1685593;83;21469;-43
2021/06/28 09:42:16;;;;;;;3.58;3.02;;;;;;;24.69;81.51;100241.79;1712725;83;21459;-43
2021/06/28 09:45:00;;;;;;;3.17;2.47;;;;;;;24.70;82.23;100241.61;1680397;83;20956;-46
2021/06/28 09:47:29;;;;;;;4.12;2.40;;;;;;;24.72;83.77;100238.19;1681838;84;20971;-46
2021/06/28 09:50:15;;;;;;;3.12;2.17;;;;;;;24.77;82.83;100235.75;1680225;83;21003;-44
2021/06/28 09:52:47;;;;;;;3.72;2.47;;;;;;;24.82;82.24;100238.75;1679946;83;20995;-45
2021/06/28 09:55:25;;;;;;;2.50;2.30;;;;;;;24.86;79.32;100237.00;1720473;81;21054;-44
2021/06/28 09:58:21;;;;;;;2.42;2.00;;;;;;;24.87;78.03;100227.26;1705875;82;21014;-44
2021/06/28 10:00:47;;;;;;;3.30;2.45;;;;;;;24.86;77.66;100239.20;1706204;82;21039;-46
2021/06/28 10:03:45;;;;;;;2.20;1.92;;;;;;;24.86;77.48;100232.92;1691136;84;21018;-47
2021/06/28 10:08:53;;;;;;;3.15;2.40;;;;;;;24.85;75.07;100234.80;1693452;83;21003;-42
2021/06/28 10:11:23;;;;;;;2.17;1.90;;;;;;;24.87;75.12;100234.07;1685088;82;20999;-42
2021/06/28 10:14:00;;;;;;;2.92;2.47;;;;;;;24.91;74.36;100233.20;1687932;82;21015;-44
2021/06/28 10:16:29;;;;;;;2.77;2.15;;;;;;;24.96;76.54;100234.31;1690048;84;21503;-42
2021/06/28 10:18:56;;;;;;;2.52;2.10;;;;;;;25.02;78.73;100240.39;1687844;83;20987;-45
2021/06/28 10:21:24;;;;;;;3.70;2.15;;;;;;;25.09;79.15;100240.98;1696540;83;21015;-46
2021/06/28 10:23:51;;;;;;;2.77;2.52;;;;;;;25.14;78.23;100227.09;1674789;83;20996;-45
2021/06/28 10:26:18;;;;;;;4.55;2.77;;;;;;;25.20;77.18;100229.60;1697260;83;21059;-46
2021/06/28 10:28:46;;;;;;;2.83;2.55;;;;;;;25.23;76.75;100231.45;1696790;82;21038;-51
2021/06/28 10:31:13;;;;;;;2.58;2.37;;;;;;;25.23;75.00;100238.27;1694623;82;21104;-46
2021/06/28 10:33:42;;;;;;;3.90;2.10;;;;;;;25.22;74.76;100232.50;1687999;82;21038;-46
2021/06/28 10:36:13;;;;;;;4.20;2.92;;;;;;;25.18;73.48;100232.54;1686448;83;21540;-43
2021/06/28 10:38:51;;;;;;;3.50;2.87;;;;;;;25.15;75.34;100241.08;1698933;82;21035;-46
2021/06/28 10:41:52;;;;;;;3.22;2.30;;;;;;;25.20;77.32;100240.51;1718916;81;21106;-43
2021/06/28 10:44:20;;;;;;;2.37;2.12;;;;;;;25.24;77.32;100242.67;1716176;81;20982;-45
2021/06/28 10:46:51;;;;;;;2.47;2.02;;;;;;;25.28;78.12;100235.49;1717135;81;21039;-45
2021/06/28 10:49:44;;;;;;;4.08;2.55;;;;;;;25.28;73.91;100234.13;1692181;83;21006;-42
2021/06/28 10:52:11;;;;;;;2.83;2.22;;;;;;;25.28;75.00;100232.77;1673071;83;21012;-46
2021/06/28 10:54:38;;;;;;;2.87;2.12;;;;;;;25.30;74.85;100240.22;1689702;83;20980;-44
2021/06/28 10:57:05;;;;;;;4.70;2.90;;;;;;;25.32;76.10;100240.87;1691558;83;21003;-46
2021/06/28 10:59:42;;;;;;;3.02;2.30;;;;;;;25.35;75.95;100238.62;1699164;83;21316;-44
2021/06/28 11:02:13;;;;;;;4.75;2.58;;;;;;;25.41;74.74;100232.39;1713919;82;21041;-43
2021/06/28 11:04:55;;;;;;;3.15;2.83;;;;;;;25.43;72.67;100234.41;1697107;81;21045;-46
2021/06/28 11:07:22;;;;;;;2.25;1.87;;;;;;;25.47;74.64;100233.50;1720138;83;20987;-47
2021/06/28 11:09:54;;;;;;;4.22;3.83;;;;;;;25.50;73.49;100235.83;1705407;83;21525;-49
2021/06/28 11:12:25;;;;;;;4.22;2.85;;;;;;;25.54;72.59;100234.42;1723951;81;21045;-50
2021/06/28 11:15:23;;;;;;;2.98;2.52;;;;;;;25.59;72.39;100237.94;1723845;82;20982;-53
2021/06/28 11:17:54;;;;;;;3.12;2.58;;;;;;;25.62;72.73;100233.45;1722321;81;20979;-51
2021/06/28 11:20:31;;;;;;;3.45;2.27;;;;;;;25.63;73.17;100230.54;1692524;83;21055;-49
2021/06/28 11:23:09;;;;;;;3.40;2.15;;;;;;;25.63;71.68;100244.19;1676618;83;21024;-43
2021/06/28 11:25:55;;;;;;;4.78;1.98;;;;;;;25.59;72.78;100246.97;1687465;83;21086;-48
2021/06/28 11:28:36;;;;;;;2.85;2.12;;;;;;;25.54;72.35;100242.61;1677625;83;21086;-50
2021/06/28 11:31:09;;;;;;;3.72;2.22;;;;;;;25.51;71.00;100240.80;1684509;83;21012;-45